createdAt,value
2022-12-11T00:00:15.731Z,2.90
2022-12-11T00:02:42.531Z,2.90
2022-12-11T00:05:09.791Z,2.90
2022-12-11T00:10:05.071Z,2.90
2022-12-11T00:12:32.049Z,2.90
2022-12-11T00:14:58.935Z,2.90
2022-12-11T00:17:25.677Z,2.90
2022-12-11T00:19:52.426Z,2.90
2022-12-11T00:22:19.159Z,2.90
2022-12-11T00:24:45.856Z,2.90
2022-12-11T00:27:12.665Z,3.00
2022-12-11T00:29:39.441Z,3.00
2022-12-11T00:32:06.354Z,3.00
2022-12-11T00:34:33.112Z,3.10
2022-12-11T00:37:00.017Z,3.10
2022-12-11T00:39:26.776Z,3.10
2022-12-11T00:41:53.527Z,3.10
2022-12-11T00:44:20.290Z,3.10
2022-12-11T00:46:47.034Z,3.10
2022-12-11T00:49:13.869Z,3.20
2022-12-11T00:51:40.600Z,3.20
2022-12-11T00:54:07.329Z,3.20
2022-12-11T00:56:34.062Z,3.20
2022-12-11T00:59:00.818Z,3.30
2022-12-11T01:01:27.609Z,3.30
2022-12-11T01:03:54.642Z,3.30
2022-12-11T01:06:25.956Z,3.40
2022-12-11T01:09:11.985Z,3.30
2022-12-11T01:11:39.375Z,3.30
2022-12-11T01:14:06.527Z,3.40
2022-12-11T01:16:33.431Z,3.40
2022-12-11T01:19:00.446Z,3.40
2022-12-11T01:21:27.233Z,3.40
2022-12-11T01:23:53.983Z,3.40
2022-12-11T01:26:21.582Z,3.40
2022-12-11T01:28:52.315Z,3.40
2022-12-11T01:31:22.849Z,3.50
2022-12-11T01:33:49.745Z,3.50
2022-12-11T01:36:20.808Z,3.40
2022-12-11T01:38:49.141Z,3.50
2022-12-11T01:41:18.161Z,3.40
2022-12-11T01:44:07.678Z,3.40
2022-12-11T01:46:36.803Z,3.40
2022-12-11T01:49:11.731Z,3.40
2022-12-11T01:51:53.231Z,4.80
2022-12-11T01:54:24.740Z,3.40
2022-12-11T01:56:55.017Z,3.40
2022-12-11T01:59:26.889Z,3.40
2022-12-11T02:02:04.800Z,3.40
2022-12-11T02:04:35.328Z,3.40
2022-12-11T02:07:03.581Z,3.30
2022-12-11T02:09:35.306Z,3.30
2022-12-11T02:12:39.996Z,3.30
2022-12-11T02:15:48.760Z,3.30
2022-12-11T02:18:33.808Z,3.30
2022-12-11T02:21:13.207Z,3.20
2022-12-11T02:24:01.078Z,3.20
2022-12-11T02:27:17.848Z,3.20
2022-12-11T02:30:12.131Z,3.20
2022-12-11T02:32:57.609Z,3.20
2022-12-11T02:35:33.218Z,3.10
2022-12-11T02:38:16.656Z,3.20
2022-12-11T02:40:45.076Z,3.10
2022-12-11T02:43:16.034Z,3.10
2022-12-11T02:45:46.828Z,3.10
2022-12-11T02:48:15.730Z,3.10
2022-12-11T02:50:50.094Z,3.10
2022-12-11T02:53:22.049Z,3.10
2022-12-11T02:55:58.107Z,3.20
2022-12-11T02:58:32.396Z,3.10
2022-12-11T03:00:59.342Z,3.20
2022-12-11T03:03:29.365Z,3.10
2022-12-11T03:05:56.314Z,3.10
2022-12-11T03:08:23.079Z,3.10
2022-12-11T03:10:49.946Z,3.10
2022-12-11T03:13:21.455Z,3.10
2022-12-11T03:16:09.171Z,3.10
2022-12-11T03:19:22.489Z,3.00
2022-12-11T03:22:00.646Z,3.10
2022-12-11T03:24:39.420Z,3.00
2022-12-11T03:27:25.282Z,3.10
2022-12-11T03:30:08.703Z,3.00
2022-12-11T03:33:01.071Z,3.00
2022-12-11T03:35:37.836Z,3.00
2022-12-11T03:38:18.673Z,3.00
2022-12-11T03:40:50.902Z,3.00
2022-12-11T03:43:20.078Z,3.00
2022-12-11T03:45:49.638Z,2.90
2022-12-11T03:48:19.238Z,3.00
2022-12-11T03:50:48.623Z,2.90
2022-12-11T03:53:16.800Z,2.90
2022-12-11T03:55:43.584Z,2.90
2022-12-11T03:58:10.446Z,2.90
2022-12-11T04:00:37.627Z,3.00
2022-12-11T04:03:14.096Z,2.90
2022-12-11T04:05:51.649Z,2.90
2022-12-11T04:08:20.947Z,2.90
2022-12-11T04:10:49.099Z,2.90
2022-12-11T04:13:15.824Z,2.90
2022-12-11T04:15:42.628Z,2.90
2022-12-11T04:18:29.156Z,2.80
2022-12-11T04:21:15.116Z,2.80
2022-12-11T04:26:27.984Z,2.70
2022-12-11T04:28:54.716Z,2.70
2022-12-11T04:31:23.276Z,2.50
2022-12-11T04:33:50.369Z,2.70
2022-12-11T04:36:17.977Z,2.60
2022-12-11T04:38:44.692Z,2.60
2022-12-11T04:41:15.097Z,2.70
2022-12-11T04:43:45.229Z,2.60
2022-12-11T04:46:22.042Z,2.70
2022-12-11T04:48:56.741Z,2.70
2022-12-11T04:51:25.212Z,2.70
2022-12-11T04:53:52.554Z,2.70
2022-12-11T04:56:19.681Z,2.70
2022-12-11T04:58:47.183Z,2.70
2022-12-11T05:01:22.057Z,2.60
2022-12-11T05:03:49.175Z,2.60
2022-12-11T05:06:16.371Z,2.60
2022-12-11T05:08:45.321Z,2.60
2022-12-11T05:11:15.227Z,2.60
2022-12-11T05:13:42.631Z,2.60
2022-12-11T05:16:13.145Z,2.50
2022-12-11T05:18:40.248Z,2.50
2022-12-11T05:21:13.071Z,2.50
2022-12-11T05:23:40.810Z,2.50
2022-12-11T05:26:17.001Z,2.50
2022-12-11T05:31:18.530Z,2.60
2022-12-11T05:33:46.511Z,2.50
2022-12-11T05:36:18.868Z,2.60
2022-12-11T05:38:45.987Z,2.60
2022-12-11T05:41:16.741Z,2.60
2022-12-11T05:43:44.298Z,2.60
2022-12-11T05:46:16.274Z,2.60
2022-12-11T05:48:46.044Z,2.60
2022-12-11T05:51:15.201Z,2.50
2022-12-11T05:53:43.987Z,2.50
2022-12-11T05:56:15.422Z,2.50
2022-12-11T05:58:44.181Z,2.40
2022-12-11T06:01:23.443Z,2.40
2022-12-11T06:03:50.377Z,2.40
2022-12-11T06:06:17.479Z,2.30
2022-12-11T06:08:44.575Z,2.30
2022-12-11T06:11:14.585Z,2.30
2022-12-11T06:13:43.118Z,2.30
2022-12-11T06:16:10.334Z,2.30
2022-12-11T06:18:44.171Z,2.30
2022-12-11T06:21:30.208Z,2.30
2022-12-11T06:24:02.697Z,2.30
2022-12-11T06:26:29.866Z,2.20
2022-12-11T06:28:56.765Z,2.30
2022-12-11T06:31:23.701Z,2.20
2022-12-11T06:33:50.530Z,2.20
2022-12-11T06:36:22.648Z,2.20
2022-12-11T06:38:50.679Z,2.20
2022-12-11T06:41:17.663Z,2.20
2022-12-11T06:43:44.756Z,2.10
2022-12-11T06:46:18.753Z,2.10
2022-12-11T06:51:20.502Z,2.10
2022-12-11T06:53:52.921Z,2.00
2022-12-11T06:56:20.231Z,2.00
2022-12-11T06:58:47.101Z,1.90
2022-12-11T07:01:21.880Z,1.90
2022-12-11T07:03:49.132Z,1.90
2022-12-11T07:06:16.252Z,1.90
2022-12-11T07:08:43.571Z,1.90
2022-12-11T07:11:15.808Z,1.90
2022-12-11T07:13:42.765Z,2.00
2022-12-11T07:16:12.033Z,1.90
2022-12-11T07:18:41.566Z,2.00
2022-12-11T07:21:11.745Z,1.90
2022-12-11T07:23:38.608Z,1.80
2022-12-11T07:26:12.854Z,1.80
2022-12-11T07:28:40.075Z,1.80
2022-12-11T07:31:09.160Z,1.80
2022-12-11T07:33:36.147Z,1.80
2022-12-11T07:36:05.516Z,1.70
2022-12-11T07:38:32.387Z,1.70
2022-12-11T07:41:04.592Z,1.70
2022-12-11T07:43:32.205Z,1.70
2022-12-11T07:46:12.179Z,1.70
2022-12-11T07:48:40.856Z,1.70
2022-12-11T07:51:30.616Z,1.70
2022-12-11T07:54:08.371Z,1.60
2022-12-11T07:56:36.243Z,1.60
2022-12-11T07:59:05.172Z,1.60
2022-12-11T08:01:38.232Z,1.60
2022-12-11T08:04:08.132Z,1.60
2022-12-11T08:06:39.199Z,1.60
2022-12-11T08:09:10.153Z,1.60
2022-12-11T08:14:06.699Z,1.60
2022-12-11T08:16:33.579Z,1.60
2022-12-11T08:19:00.452Z,1.50
2022-12-11T08:21:29.328Z,1.50
2022-12-11T08:23:56.431Z,1.60
2022-12-11T08:26:33.611Z,1.50
2022-12-11T08:29:02.583Z,1.50
2022-12-11T08:33:57.929Z,1.50
2022-12-11T08:36:25.640Z,1.50
2022-12-11T08:38:55.012Z,1.50
2022-12-11T08:41:25.953Z,1.50
2022-12-11T08:43:55.121Z,1.50
2022-12-11T08:46:28.946Z,1.50
2022-12-11T08:48:56.621Z,1.60
2022-12-11T08:51:27.213Z,1.50
2022-12-11T08:54:00.464Z,1.60
2022-12-11T08:56:28.547Z,1.60
2022-12-11T08:58:55.809Z,1.60
2022-12-11T09:01:27.909Z,1.70
2022-12-11T09:03:56.655Z,1.70
2022-12-11T09:06:27.300Z,1.70
2022-12-11T09:08:55.980Z,1.70
2022-12-11T09:11:30.447Z,1.80
2022-12-11T09:14:02.083Z,1.80
2022-12-11T09:16:33.739Z,1.80
2022-12-11T09:19:00.872Z,1.70
2022-12-11T09:21:30.595Z,1.80
2022-12-11T09:24:01.017Z,1.90
2022-12-11T09:26:30.183Z,1.90
2022-12-11T09:28:57.611Z,1.90
2022-12-11T09:31:29.541Z,1.90
2022-12-11T09:34:08.758Z,2.00
2022-12-11T09:36:37.898Z,2.00
2022-12-11T09:39:07.891Z,2.00
2022-12-11T09:42:13.059Z,2.00
2022-12-11T09:44:59.950Z,2.00
2022-12-11T09:47:37.776Z,2.00
2022-12-11T09:50:10.374Z,2.00
2022-12-11T09:52:54.478Z,2.00
2022-12-11T09:55:25.432Z,2.00
2022-12-11T09:58:11.305Z,2.00
2022-12-11T10:00:57.743Z,2.00
2022-12-11T10:03:52.663Z,1.90
2022-12-11T10:06:32.221Z,2.10
2022-12-11T10:09:19.627Z,2.00
2022-12-11T10:12:18.984Z,2.00
2022-12-11T10:15:22.394Z,2.00
2022-12-11T10:17:51.446Z,2.00
2022-12-11T10:20:23.811Z,2.00
2022-12-11T10:22:52.444Z,2.10
2022-12-11T10:25:29.549Z,2.10
2022-12-11T10:30:34.493Z,2.00
2022-12-11T10:33:11.391Z,2.00
2022-12-11T10:35:48.740Z,2.00
2022-12-11T10:38:21.477Z,2.00
2022-12-11T10:41:05.694Z,2.00
2022-12-11T10:43:42.192Z,2.10
2022-12-11T10:46:28.090Z,2.10
2022-12-11T10:49:01.065Z,2.00
2022-12-11T10:51:30.859Z,2.00
2022-12-11T10:54:08.199Z,2.00
2022-12-11T10:56:37.748Z,2.00
2022-12-11T10:59:05.402Z,2.00
2022-12-11T11:01:32.944Z,2.00
2022-12-11T11:04:07.781Z,2.10
2022-12-11T11:06:34.590Z,2.10
2022-12-11T11:09:03.124Z,2.10
2022-12-11T11:11:34.462Z,2.10
2022-12-11T11:14:07.736Z,2.10
2022-12-11T11:16:41.317Z,2.10
2022-12-11T11:19:26.673Z,2.10
2022-12-11T11:22:06.877Z,2.20
2022-12-11T11:24:47.106Z,2.20
2022-12-11T11:27:30.537Z,2.20
2022-12-11T11:30:03.077Z,2.30
2022-12-11T11:32:38.726Z,2.30
2022-12-11T11:35:11.971Z,2.30
2022-12-11T11:37:44.666Z,2.30
2022-12-11T11:40:24.178Z,2.40
2022-12-11T11:43:10.593Z,2.40
2022-12-11T11:45:58.194Z,2.30
2022-12-11T11:48:40.088Z,2.40
2022-12-11T11:51:45.686Z,2.30
2022-12-11T11:54:42.499Z,2.40
2022-12-11T11:57:20.690Z,2.40
2022-12-11T11:59:58.123Z,2.50
2022-12-11T12:02:25.022Z,2.50
2022-12-11T12:04:51.921Z,2.50
2022-12-11T12:07:33.670Z,2.50
2022-12-11T12:10:28.569Z,2.50
2022-12-11T12:13:23.819Z,2.50
2022-12-11T12:16:00.103Z,2.50
2022-12-11T12:19:07.578Z,2.60
2022-12-11T12:21:38.984Z,2.60
2022-12-11T12:24:43.887Z,2.60
2022-12-11T12:27:51.151Z,2.60
2022-12-11T12:30:22.418Z,2.60
2022-12-11T12:33:19.864Z,2.60
2022-12-11T12:36:10.814Z,2.60
2022-12-11T12:39:04.662Z,2.60
2022-12-11T12:41:55.237Z,2.60
2022-12-11T12:44:25.185Z,2.60
2022-12-11T12:47:10.786Z,2.60
2022-12-11T12:49:45.789Z,2.60
2022-12-11T12:52:29.888Z,2.70
2022-12-11T12:55:15.998Z,2.70
2022-12-11T12:57:57.733Z,2.70
2022-12-11T13:00:39.046Z,2.80
2022-12-11T13:03:18.386Z,2.80
2022-12-11T13:06:02.210Z,2.80
2022-12-11T13:08:39.584Z,2.80
2022-12-11T13:11:12.612Z,2.90
2022-12-11T13:13:55.133Z,2.90
2022-12-11T13:16:36.463Z,2.90
2022-12-11T13:19:03.808Z,2.90
2022-12-11T13:21:38.319Z,2.90
2022-12-11T13:24:27.822Z,3.00
2022-12-11T13:26:55.345Z,3.00
2022-12-11T13:29:36.193Z,3.00
2022-12-11T13:32:24.455Z,2.90
2022-12-11T13:34:58.869Z,2.90
2022-12-11T13:37:34.246Z,2.90
2022-12-11T13:40:17.452Z,2.90
2022-12-11T13:42:54.400Z,2.90
2022-12-11T13:45:38.586Z,3.10
2022-12-11T13:48:36.833Z,3.00
2022-12-11T13:51:05.527Z,2.90
2022-12-11T13:53:33.083Z,3.00
2022-12-11T13:56:20.073Z,3.00
2022-12-11T13:58:48.006Z,3.00
2022-12-11T14:01:22.972Z,3.00
2022-12-11T14:04:12.383Z,4.80
2022-12-11T14:06:39.820Z,3.00
2022-12-11T14:09:08.633Z,3.00
2022-12-11T14:11:43.546Z,3.00
2022-12-11T14:14:25.058Z,2.90
2022-12-11T14:16:53.181Z,2.90
2022-12-11T14:19:23.041Z,2.90
2022-12-11T14:22:02.642Z,2.90
2022-12-11T14:24:31.647Z,2.90
2022-12-11T14:26:59.440Z,2.80
2022-12-11T14:29:33.082Z,2.80
2022-12-11T14:32:05.541Z,4.20
2022-12-11T14:34:39.170Z,2.70
2022-12-11T14:37:08.212Z,2.70
2022-12-11T14:39:47.717Z,2.70
2022-12-11T14:42:27.166Z,2.80
2022-12-11T14:45:06.089Z,2.70
2022-12-11T14:47:40.968Z,2.70
2022-12-11T14:50:37.918Z,2.70
2022-12-11T14:53:13.449Z,2.70
2022-12-11T14:55:41.231Z,2.70
2022-12-11T14:58:17.982Z,2.70
2022-12-11T15:00:55.374Z,2.70
2022-12-11T15:03:24.813Z,4.40
2022-12-11T15:05:57.940Z,2.70
2022-12-11T15:08:36.958Z,2.80
2022-12-11T15:11:13.350Z,2.80
2022-12-11T15:14:00.214Z,3.40
2022-12-11T15:16:34.684Z,2.80
2022-12-11T15:19:02.152Z,2.80
2022-12-11T15:21:35.983Z,2.80
2022-12-11T15:24:05.936Z,2.80
2022-12-11T15:26:47.855Z,2.80
2022-12-11T15:29:38.368Z,2.80
2022-12-11T15:32:19.024Z,2.80
2022-12-11T15:34:58.928Z,2.90
2022-12-11T15:37:32.632Z,2.80
2022-12-11T15:40:03.397Z,2.80
2022-12-11T15:42:39.927Z,2.80
2022-12-11T15:45:15.422Z,2.90
2022-12-11T15:47:43.761Z,2.80
2022-12-11T15:50:29.166Z,2.80
2022-12-11T15:52:57.036Z,2.80
2022-12-11T15:55:29.651Z,2.80
2022-12-11T15:58:01.889Z,2.80
2022-12-11T16:00:28.947Z,2.90
2022-12-11T16:02:57.319Z,2.90
2022-12-11T16:05:25.613Z,2.90
2022-12-11T16:07:54.022Z,2.90
2022-12-11T16:10:22.557Z,2.90
2022-12-11T16:12:49.387Z,2.90
2022-12-11T16:15:23.119Z,2.90
2022-12-11T16:17:50.654Z,2.90
2022-12-11T16:20:17.606Z,3.00
2022-12-11T16:22:44.697Z,2.90
2022-12-11T16:25:11.798Z,2.90
2022-12-11T16:30:06.733Z,2.90
2022-12-11T16:32:33.655Z,2.90
2022-12-11T16:35:01.118Z,2.90
2022-12-11T16:37:28.362Z,2.90
2022-12-11T16:39:55.252Z,2.90
2022-12-11T16:42:21.984Z,2.90
2022-12-11T16:44:49.082Z,2.80
2022-12-11T16:47:16.012Z,2.80
2022-12-11T16:49:45.683Z,2.80
2022-12-11T16:52:14.437Z,2.80
2022-12-11T16:54:44.451Z,2.80
2022-12-11T16:57:11.142Z,2.80
2022-12-11T16:59:37.919Z,2.80
2022-12-11T17:02:05.437Z,2.80
2022-12-11T17:04:32.585Z,2.80
2022-12-11T17:06:59.370Z,2.80
2022-12-11T17:09:26.141Z,2.90
2022-12-11T17:11:52.877Z,2.90
2022-12-11T17:14:20.257Z,2.90
2022-12-11T17:16:48.112Z,2.90
2022-12-11T17:19:15.788Z,2.90
2022-12-11T17:21:48.431Z,2.80
2022-12-11T17:24:18.703Z,2.80
2022-12-11T17:26:45.704Z,2.80
2022-12-11T17:29:13.353Z,2.80
2022-12-11T17:34:08.029Z,2.80
2022-12-11T17:36:34.853Z,2.80
2022-12-11T17:39:01.674Z,2.70
2022-12-11T17:41:28.408Z,2.70
2022-12-11T17:43:56.077Z,2.60
2022-12-11T17:46:23.090Z,2.70
2022-12-11T17:48:49.874Z,2.70
2022-12-11T17:51:21.969Z,2.70
2022-12-11T17:53:48.782Z,2.60
2022-12-11T17:56:16.478Z,2.60
2022-12-11T17:58:43.743Z,2.60
2022-12-11T18:01:13.171Z,2.60
2022-12-11T18:03:41.337Z,2.60
2022-12-11T18:06:14.492Z,2.60
2022-12-11T18:08:41.786Z,2.60
2022-12-11T18:11:14.505Z,2.60
2022-12-11T18:13:43.511Z,2.60
2022-12-11T18:16:19.798Z,2.60
2022-12-11T18:18:48.707Z,2.60
2022-12-11T18:21:19.478Z,2.60
2022-12-11T18:23:47.157Z,2.60
2022-12-11T18:26:14.583Z,2.60
2022-12-11T18:28:42.244Z,2.70
2022-12-11T18:31:10.311Z,2.60
2022-12-11T18:33:39.607Z,2.70
2022-12-11T18:36:07.288Z,2.60
2022-12-11T18:38:34.584Z,2.60
2022-12-11T18:41:08.071Z,2.60
2022-12-11T18:43:36.341Z,2.60
2022-12-11T18:46:14.036Z,2.60
2022-12-11T18:48:45.894Z,2.60
2022-12-11T18:51:17.387Z,2.60
2022-12-11T18:53:45.066Z,2.50
2022-12-11T18:56:16.343Z,2.50
2022-12-11T18:58:43.673Z,2.50
2022-12-11T19:01:20.684Z,2.50
2022-12-11T19:03:49.637Z,2.40
2022-12-11T19:06:21.439Z,2.40
2022-12-11T19:08:48.629Z,2.50
2022-12-11T19:11:18.160Z,2.50
2022-12-11T19:13:45.601Z,2.50
2022-12-11T19:16:22.209Z,2.50
2022-12-11T19:18:50.249Z,2.50
2022-12-11T19:21:18.620Z,2.50
2022-12-11T19:23:46.529Z,2.50
2022-12-11T19:26:17.366Z,2.50
2022-12-11T19:28:44.716Z,2.50
2022-12-11T19:31:15.106Z,2.50
2022-12-11T19:33:43.384Z,2.40
2022-12-11T19:36:20.789Z,2.60
2022-12-11T19:38:48.784Z,2.60
2022-12-11T19:41:18.876Z,2.60
2022-12-11T19:43:45.787Z,2.60
2022-12-11T19:46:14.363Z,2.60
2022-12-11T19:48:41.699Z,2.60
2022-12-11T19:51:15.169Z,2.60
2022-12-11T19:53:43.945Z,2.60
2022-12-11T19:56:11.785Z,2.60
2022-12-11T19:58:39.155Z,2.60
2022-12-11T20:01:07.379Z,2.60
2022-12-11T20:03:35.676Z,2.60
2022-12-11T20:06:05.142Z,2.60
2022-12-11T20:08:44.659Z,2.60
2022-12-11T20:11:17.555Z,2.60
2022-12-11T20:13:45.917Z,2.70
2022-12-11T20:16:14.189Z,2.70
2022-12-11T20:18:41.453Z,2.70
2022-12-11T20:21:12.859Z,2.70
2022-12-11T20:23:39.938Z,2.70
2022-12-11T20:26:13.927Z,2.80
2022-12-11T20:28:41.036Z,2.80
2022-12-11T20:31:18.232Z,2.80
2022-12-11T20:33:49.216Z,2.80
2022-12-11T20:36:19.004Z,2.80
2022-12-11T20:38:45.739Z,2.70
2022-12-11T20:41:16.744Z,2.70
2022-12-11T20:43:43.693Z,2.70
2022-12-11T20:46:14.798Z,2.70
2022-12-11T20:48:44.034Z,2.70
2022-12-11T20:51:14.341Z,2.80
2022-12-11T20:53:42.363Z,2.80
2022-12-11T20:56:16.372Z,2.80
2022-12-11T20:58:43.644Z,2.80
2022-12-11T21:01:20.219Z,2.80
2022-12-11T21:06:25.349Z,2.90
2022-12-11T21:08:53.270Z,2.90
2022-12-11T21:11:20.516Z,2.80
2022-12-11T21:13:47.260Z,2.80
2022-12-11T21:16:14.191Z,2.80
2022-12-11T21:18:41.576Z,2.80
2022-12-11T21:21:08.319Z,2.80
2022-12-11T21:23:35.192Z,2.80
2022-12-11T21:26:03.307Z,2.80
2022-12-11T21:28:35.213Z,2.70
2022-12-11T21:31:06.571Z,2.70
2022-12-11T21:33:34.409Z,2.80
2022-12-11T21:36:02.371Z,2.80
2022-12-11T21:38:29.472Z,2.70
2022-12-11T21:40:56.942Z,2.80
2022-12-11T21:43:24.777Z,2.80
2022-12-11T21:46:01.075Z,2.80
2022-12-11T21:48:29.086Z,2.90
2022-12-11T21:51:03.700Z,2.90
2022-12-11T21:53:30.467Z,2.90
2022-12-11T21:55:57.195Z,2.90
2022-12-11T21:58:23.915Z,2.90
2022-12-11T22:00:50.721Z,2.80
2022-12-11T22:03:17.478Z,2.80
2022-12-11T22:05:44.185Z,2.80
2022-12-11T22:08:10.951Z,2.80
2022-12-11T22:10:37.786Z,2.80
2022-12-11T22:13:05.069Z,2.70
2022-12-11T22:15:31.804Z,2.80
2022-12-11T22:17:58.503Z,2.80
2022-12-11T22:20:25.209Z,2.80
2022-12-11T22:22:51.968Z,2.80
2022-12-11T22:25:18.795Z,2.70
2022-12-11T22:27:45.515Z,2.70
2022-12-11T22:30:12.814Z,2.70
2022-12-11T22:32:39.838Z,2.70
2022-12-11T22:35:07.244Z,2.70
2022-12-11T22:40:01.286Z,2.60
2022-12-11T22:42:28.068Z,2.60
2022-12-11T22:44:54.859Z,2.60
2022-12-11T22:47:21.589Z,2.60
2022-12-11T22:49:48.306Z,2.60
2022-12-11T22:52:15.143Z,2.70
2022-12-11T22:54:42.877Z,2.60
2022-12-11T22:57:10.093Z,2.60
2022-12-11T22:59:37.204Z,2.60
2022-12-11T23:02:04.021Z,2.50
2022-12-11T23:04:30.816Z,2.70
2022-12-11T23:06:58.257Z,2.60
2022-12-11T23:09:25.323Z,2.60
2022-12-11T23:11:52.357Z,2.60
2022-12-11T23:14:19.565Z,2.60
2022-12-11T23:16:46.381Z,2.60
2022-12-11T23:19:13.667Z,2.60
2022-12-11T23:21:40.466Z,2.60
2022-12-11T23:24:07.823Z,2.60
2022-12-11T23:26:34.630Z,2.60
2022-12-11T23:29:01.994Z,2.70
2022-12-11T23:31:30.181Z,2.70
2022-12-11T23:33:57.418Z,2.70
2022-12-11T23:36:25.871Z,2.70
2022-12-11T23:38:54.920Z,2.80
2022-12-11T23:41:23.463Z,2.80
2022-12-11T23:43:50.227Z,2.80
2022-12-11T23:46:21.641Z,2.80
2022-12-11T23:48:49.218Z,2.80
2022-12-11T23:51:18.489Z,2.80
2022-12-11T23:53:45.567Z,2.80
2022-12-11T23:56:23.593Z,2.80
2022-12-11T23:58:52.049Z,2.80
